createdAt,value
2022-11-24T00:00:38.984Z,151328.16
2022-11-24T00:03:18.054Z,151315.25
2022-11-24T00:05:58.606Z,151320.41
2022-11-24T00:08:34.901Z,151312.66
2022-11-24T00:11:27.588Z,151317.84
2022-11-24T00:13:58.515Z,151308.81
2022-11-24T00:16:39.001Z,151310.09
2022-11-24T00:19:19.764Z,151312.66
2022-11-24T00:21:58.262Z,151311.38
2022-11-24T00:24:37.956Z,151310.09
2022-11-24T00:27:16.074Z,151298.50
2022-11-24T00:29:54.531Z,151311.38
2022-11-24T00:32:36.580Z,151325.53
2022-11-24T00:35:16.792Z,151310.09
2022-11-24T00:37:49.412Z,151317.84
2022-11-24T00:40:34.714Z,151310.09
2022-11-24T00:43:24.659Z,151313.97
2022-11-24T00:45:57.883Z,151297.19
2022-11-24T00:48:37.960Z,151306.22
2022-11-24T00:51:16.877Z,151307.50
2022-11-24T00:53:56.714Z,151302.34
2022-11-24T00:56:33.854Z,151301.06
2022-11-24T00:59:10.976Z,151317.84
2022-11-24T01:01:53.184Z,151306.22
2022-11-24T01:04:24.202Z,151310.09
2022-11-24T01:07:05.435Z,151316.53
2022-11-24T01:09:46.493Z,151311.38
2022-11-24T01:12:34.302Z,151311.38
2022-11-24T01:15:37.869Z,151308.81
2022-11-24T01:18:17.002Z,151301.06
2022-11-24T01:20:48.345Z,151295.91
2022-11-24T01:23:31.692Z,151304.94
2022-11-24T01:26:13.018Z,151304.94
2022-11-24T01:28:55.251Z,151294.66
2022-11-24T01:31:44.065Z,151303.66
2022-11-24T01:34:30.281Z,151297.19
2022-11-24T01:37:10.457Z,151288.22
2022-11-24T01:39:43.491Z,151279.19
2022-11-24T01:42:25.637Z,151295.91
2022-11-24T01:45:49.257Z,151280.47
2022-11-24T01:48:47.130Z,151294.66
2022-11-24T01:51:27.179Z,151299.78
2022-11-24T01:54:08.769Z,151302.34
2022-11-24T01:56:44.769Z,151289.50
2022-11-24T01:59:24.509Z,151289.50
2022-11-24T02:01:59.806Z,151297.19
2022-11-24T02:04:43.001Z,151303.66
2022-11-24T02:07:23.508Z,151289.50
2022-11-24T02:10:03.989Z,151292.03
2022-11-24T02:12:36.435Z,151292.03
2022-11-24T02:15:19.063Z,151289.50
2022-11-24T02:17:57.262Z,151294.66
2022-11-24T02:20:37.114Z,151295.91
2022-11-24T02:23:30.832Z,151297.19
2022-11-24T02:26:18.009Z,151288.22
2022-11-24T02:28:59.209Z,151302.34
2022-11-24T02:31:41.369Z,151294.66
2022-11-24T02:34:16.767Z,151307.50
2022-11-24T02:36:57.736Z,151299.78
2022-11-24T02:39:33.006Z,151289.50
2022-11-24T02:42:22.774Z,151295.91
2022-11-24T02:45:15.603Z,151288.22
2022-11-24T02:48:03.548Z,151306.22
2022-11-24T02:50:45.311Z,151293.38
2022-11-24T02:53:22.186Z,151283.03
2022-11-24T02:56:01.440Z,151288.22
2022-11-24T02:58:40.165Z,151261.16
2022-11-24T03:01:16.042Z,151275.31
2022-11-24T03:03:50.555Z,151258.53
2022-11-24T03:06:30.112Z,151239.28
2022-11-24T03:09:12.126Z,151245.69
2022-11-24T03:11:50.585Z,151246.97
2022-11-24T03:14:28.592Z,151245.69
2022-11-24T03:17:08.472Z,151235.38
2022-11-24T03:19:51.218Z,151223.78
2022-11-24T03:22:31.823Z,151235.38
2022-11-24T03:25:13.230Z,151234.13
2022-11-24T03:27:49.155Z,151231.53
2022-11-24T03:30:22.375Z,151226.38
2022-11-24T03:33:11.260Z,151221.22
2022-11-24T03:35:47.755Z,151252.13
2022-11-24T03:38:36.953Z,151256.00
2022-11-24T03:41:16.494Z,151240.53
2022-11-24T03:43:57.567Z,151235.38
2022-11-24T03:46:42.638Z,151237.94
2022-11-24T03:49:30.638Z,151249.56
2022-11-24T03:52:27.567Z,151237.94
2022-11-24T03:55:02.634Z,151259.88
2022-11-24T03:57:47.564Z,151237.94
2022-11-24T04:00:27.685Z,151237.94
2022-11-24T04:03:00.766Z,151239.28
2022-11-24T04:05:48.280Z,151256.00
2022-11-24T04:08:28.003Z,151240.53
2022-11-24T04:11:12.180Z,151234.13
2022-11-24T04:13:43.310Z,151228.91
2022-11-24T04:16:32.212Z,151218.63
2022-11-24T04:19:11.243Z,151227.66
2022-11-24T04:22:06.387Z,151231.53
2022-11-24T04:24:38.818Z,151230.25
2022-11-24T04:27:19.353Z,151235.38
2022-11-24T04:29:59.613Z,151245.69
2022-11-24T04:32:41.113Z,151237.94
2022-11-24T04:35:17.614Z,151243.09
2022-11-24T04:38:14.212Z,151244.41
2022-11-24T04:41:18.769Z,151232.78
2022-11-24T04:44:08.347Z,151225.09
2022-11-24T04:46:48.242Z,151222.50
2022-11-24T04:49:30.489Z,151213.47
2022-11-24T04:52:09.471Z,151221.22
2022-11-24T04:54:57.234Z,151214.78
2022-11-24T04:57:36.183Z,151212.19
2022-11-24T05:00:22.992Z,151210.91
2022-11-24T05:02:58.479Z,151216.06
2022-11-24T05:05:33.694Z,151217.34
2022-11-24T05:08:11.220Z,151218.63
2022-11-24T05:10:51.545Z,151214.78
2022-11-24T05:13:29.363Z,151222.50
2022-11-24T05:16:09.487Z,151217.34
2022-11-24T05:18:46.714Z,151210.91
2022-11-24T05:21:21.214Z,151226.38
2022-11-24T05:24:00.358Z,151232.78
2022-11-24T05:26:43.636Z,151245.69
2022-11-24T05:29:23.740Z,151249.56
2022-11-24T05:31:58.233Z,151261.16
2022-11-24T05:34:49.367Z,151256.00
2022-11-24T05:37:30.320Z,151285.63
2022-11-24T05:40:10.195Z,151279.19
2022-11-24T05:42:51.908Z,151293.38
2022-11-24T05:45:31.550Z,151292.03
2022-11-24T05:48:13.800Z,151285.63
2022-11-24T05:50:46.115Z,151288.22
2022-11-24T05:53:22.437Z,151280.47
2022-11-24T05:55:57.441Z,151275.31
2022-11-24T05:58:40.207Z,151276.59
2022-11-24T06:01:22.117Z,151286.88
2022-11-24T06:04:05.467Z,151281.75
2022-11-24T06:06:38.914Z,151292.03
2022-11-24T06:09:14.869Z,151302.34
2022-11-24T06:11:54.132Z,151312.66
2022-11-24T06:14:42.837Z,151320.41
2022-11-24T06:17:18.620Z,151313.97
2022-11-24T06:19:56.443Z,151307.50
2022-11-24T06:22:27.966Z,151312.66
2022-11-24T06:25:11.106Z,151299.78
2022-11-24T06:27:52.150Z,151306.22
2022-11-24T06:30:42.484Z,151293.38
2022-11-24T06:33:24.543Z,151301.06
2022-11-24T06:36:09.192Z,151295.91
2022-11-24T06:38:48.994Z,151298.50
2022-11-24T06:41:30.946Z,151299.78
2022-11-24T06:44:04.779Z,151337.13
2022-11-24T06:46:37.383Z,151350.03
2022-11-24T06:49:07.456Z,151353.91
2022-11-24T06:51:37.925Z,151366.75
2022-11-24T06:54:10.352Z,151380.94
2022-11-24T06:56:40.426Z,151382.25
2022-11-24T06:59:10.671Z,151375.78
2022-11-24T07:01:43.541Z,151392.56
2022-11-24T07:04:13.751Z,151384.81
2022-11-24T07:06:46.765Z,151368.06
2022-11-24T07:09:17.641Z,151408.03
2022-11-24T07:11:49.855Z,151392.56
2022-11-24T07:14:20.179Z,151384.81
2022-11-24T07:16:53.041Z,151410.56
2022-11-24T07:19:25.500Z,151411.91
2022-11-24T07:21:56.620Z,151413.16
2022-11-24T07:24:34.441Z,151402.88
2022-11-24T07:27:11.506Z,151411.91
2022-11-24T07:29:41.991Z,151420.88
2022-11-24T07:32:15.515Z,151419.59
2022-11-24T07:34:47.846Z,151431.22
2022-11-24T07:37:22.867Z,151429.91
2022-11-24T07:39:55.719Z,151440.22
2022-11-24T07:42:27.389Z,151468.56
2022-11-24T07:44:57.585Z,151466.03
2022-11-24T07:47:31.826Z,151475.00
2022-11-24T07:50:11.292Z,151475.00
2022-11-24T07:52:41.620Z,151453.13
2022-11-24T07:55:16.090Z,151466.03
2022-11-24T07:57:54.947Z,151453.13
2022-11-24T08:00:28.251Z,151459.53
2022-11-24T08:03:02.219Z,151459.53
2022-11-24T08:05:33.513Z,151454.38
2022-11-24T08:08:12.356Z,151453.13
2022-11-24T08:10:47.993Z,151458.28
2022-11-24T08:13:20.399Z,151454.38
2022-11-24T08:15:54.439Z,151466.03
2022-11-24T08:18:31.437Z,151475.00
2022-11-24T08:21:10.375Z,151471.19
2022-11-24T08:23:42.577Z,151489.19
2022-11-24T08:26:18.986Z,151493.06
2022-11-24T08:29:00.947Z,151499.50
2022-11-24T08:31:36.468Z,151504.66
2022-11-24T08:34:24.529Z,151511.13
2022-11-24T08:36:55.735Z,151507.25
2022-11-24T08:39:28.568Z,151520.16
2022-11-24T08:42:03.597Z,151536.91
2022-11-24T08:44:47.349Z,151529.13
2022-11-24T08:47:24.678Z,151515.00
2022-11-24T08:50:11.938Z,151534.28
2022-11-24T08:52:45.333Z,151529.13
2022-11-24T08:55:38.908Z,151544.66
2022-11-24T08:58:16.753Z,151544.66
2022-11-24T09:01:07.440Z,151562.66
2022-11-24T09:03:43.404Z,151540.78
2022-11-24T09:06:23.732Z,151562.66
2022-11-24T09:08:54.719Z,151553.63
2022-11-24T09:11:25.679Z,151558.78
2022-11-24T09:13:56.603Z,151572.97
2022-11-24T09:16:29.758Z,151574.31
2022-11-24T09:19:01.688Z,151576.84
2022-11-24T09:21:38.085Z,151572.97
2022-11-24T09:24:10.013Z,151574.31
2022-11-24T09:26:47.298Z,151584.63
2022-11-24T09:29:18.961Z,151593.66
2022-11-24T09:31:49.250Z,151606.50
2022-11-24T09:34:19.852Z,151618.16
2022-11-24T09:36:52.752Z,151624.56
2022-11-24T09:39:25.215Z,151633.63
2022-11-24T09:42:11.042Z,151637.44
2022-11-24T09:45:15.515Z,151654.22
2022-11-24T09:48:04.585Z,151664.53
2022-11-24T09:50:38.215Z,151673.59
2022-11-24T09:53:28.771Z,151689.06
2022-11-24T09:56:06.803Z,151700.66
2022-11-24T09:58:56.096Z,151695.50
2022-11-24T10:01:32.961Z,151689.06
2022-11-24T10:04:06.612Z,151694.22
2022-11-24T10:06:41.777Z,151709.69
2022-11-24T10:09:41.751Z,151690.34
2022-11-24T10:12:24.503Z,151699.38
2022-11-24T10:15:23.310Z,151710.97
2022-11-24T10:18:16.206Z,151723.88
2022-11-24T10:20:56.520Z,151732.91
2022-11-24T10:24:00.884Z,151757.41
2022-11-24T10:26:40.847Z,151732.91
2022-11-24T10:29:23.398Z,151748.38
2022-11-24T10:31:58.465Z,151756.16
2022-11-24T10:34:35.552Z,151772.91
2022-11-24T10:37:17.253Z,151771.63
2022-11-24T10:40:00.252Z,151783.22
2022-11-24T10:42:37.231Z,151803.84
2022-11-24T10:45:16.906Z,151790.97
2022-11-24T10:47:53.379Z,151784.50
2022-11-24T10:50:30.934Z,151806.44
2022-11-24T10:53:10.544Z,151814.16
2022-11-24T10:56:07.097Z,151827.09
2022-11-24T10:58:43.852Z,151836.13
2022-11-24T11:01:37.916Z,151840.00
2022-11-24T11:04:22.482Z,151837.41
2022-11-24T11:06:53.394Z,151867.13
2022-11-24T11:09:33.236Z,151861.97
2022-11-24T11:12:42.718Z,151867.13
2022-11-24T11:15:35.811Z,151868.41
2022-11-24T11:18:08.735Z,151876.16
2022-11-24T11:20:41.383Z,151890.38
2022-11-24T11:23:23.287Z,151900.69
2022-11-24T11:25:55.466Z,151901.97
2022-11-24T11:28:31.895Z,151904.56
2022-11-24T11:31:16.695Z,151904.56
2022-11-24T11:34:06.246Z,151909.72
2022-11-24T11:36:45.183Z,151914.88
2022-11-24T11:39:35.780Z,151895.53
2022-11-24T11:42:45.150Z,151896.81
2022-11-24T11:45:18.078Z,151885.22
2022-11-24T11:48:00.487Z,151874.88
2022-11-24T11:50:59.181Z,151872.28
2022-11-24T11:53:39.099Z,151863.25
2022-11-24T11:56:24.457Z,151856.81
2022-11-24T11:59:09.548Z,151843.84
2022-11-24T12:02:05.578Z,151843.84
2022-11-24T12:04:48.279Z,151837.41
2022-11-24T12:07:43.174Z,151833.53
2022-11-24T12:10:23.615Z,151829.63
2022-11-24T12:13:06.893Z,151823.19
2022-11-24T12:15:44.541Z,151819.31
2022-11-24T12:18:56.376Z,151823.19
2022-11-24T12:21:32.847Z,151803.84
2022-11-24T12:24:12.742Z,151794.81
2022-11-24T12:26:49.718Z,151803.84
2022-11-24T12:29:38.262Z,151821.94
2022-11-24T12:32:21.723Z,151819.31
2022-11-24T12:34:57.518Z,151834.78
2022-11-24T12:37:53.733Z,151834.78
2022-11-24T12:40:35.743Z,151845.16
2022-11-24T12:43:18.305Z,151849.03
2022-11-24T12:45:58.079Z,151854.22
2022-11-24T12:48:47.968Z,151878.72
2022-11-24T12:51:22.283Z,151923.94
2022-11-24T12:53:57.403Z,151926.50
2022-11-24T12:56:34.842Z,151978.16
2022-11-24T12:59:18.941Z,151974.25
2022-11-24T13:01:52.705Z,151988.47
2022-11-24T13:04:38.247Z,152006.50
2022-11-24T13:07:15.515Z,152041.38
2022-11-24T13:10:16.047Z,152043.97
2022-11-24T13:13:01.541Z,152051.69
2022-11-24T13:15:45.546Z,152073.66
2022-11-24T13:18:48.382Z,152074.94
2022-11-24T13:21:50.560Z,152037.53
2022-11-24T13:24:36.742Z,152015.56
2022-11-24T13:27:45.578Z,151993.63
2022-11-24T13:30:53.420Z,151970.38
2022-11-24T13:33:36.720Z,151987.13
2022-11-24T13:36:37.871Z,151979.41
2022-11-24T13:39:23.677Z,151970.38
2022-11-24T13:42:04.697Z,151984.59
2022-11-24T13:44:52.585Z,151989.75
2022-11-24T13:47:39.719Z,152009.13
2022-11-24T13:50:24.943Z,152037.53
2022-11-24T13:53:02.198Z,152022.00
2022-11-24T13:55:38.996Z,152028.47
2022-11-24T13:58:29.727Z,152005.22
2022-11-24T14:01:06.903Z,151996.19
2022-11-24T14:03:40.044Z,152003.94
2022-11-24T14:06:20.374Z,151962.63
2022-11-24T14:08:52.087Z,151943.25
2022-11-24T14:11:28.707Z,151930.38
2022-11-24T14:13:59.875Z,151916.16
2022-11-24T14:16:30.532Z,151880.06
2022-11-24T14:19:13.094Z,151859.38
2022-11-24T14:21:46.705Z,151863.25
2022-11-24T14:24:39.737Z,151834.78
2022-11-24T14:27:18.113Z,151818.03
2022-11-24T14:30:05.956Z,151807.72
2022-11-24T14:32:37.997Z,151799.97
2022-11-24T14:35:26.266Z,151780.59
2022-11-24T14:38:00.492Z,151757.41
2022-11-24T14:40:45.504Z,151761.31
2022-11-24T14:43:25.764Z,151722.59
2022-11-24T14:46:00.163Z,151690.34
2022-11-24T14:48:32.315Z,151691.59
2022-11-24T14:51:17.365Z,151681.28
2022-11-24T14:53:58.570Z,151632.28
2022-11-24T14:56:38.333Z,151628.47
2022-11-24T14:59:25.713Z,151633.63
2022-11-24T15:01:57.270Z,151623.31
2022-11-24T15:07:27.808Z,151567.81
2022-11-24T15:10:08.350Z,151539.50
2022-11-24T15:12:43.673Z,151539.50
2022-11-24T15:15:22.833Z,151502.09
2022-11-24T15:17:55.854Z,151485.34
2022-11-24T15:20:32.211Z,151453.13
2022-11-24T15:23:24.276Z,151451.84
2022-11-24T15:25:59.777Z,151454.38
2022-11-24T15:28:30.758Z,151446.69
2022-11-24T15:31:04.742Z,151435.06
2022-11-24T15:33:35.766Z,151436.38
2022-11-24T15:36:08.377Z,151420.88
2022-11-24T15:38:40.784Z,151399.00
2022-11-24T15:41:22.810Z,151356.44
2022-11-24T15:43:59.278Z,151351.31
2022-11-24T15:46:30.819Z,151342.31
2022-11-24T15:49:02.463Z,151328.16
2022-11-24T15:51:34.197Z,151323.00
2022-11-24T15:54:07.610Z,151313.97
2022-11-24T15:56:42.653Z,151330.69
2022-11-24T15:59:20.547Z,151344.88
2022-11-24T16:01:56.832Z,151337.13
2022-11-24T16:04:29.659Z,151343.59
2022-11-24T16:07:06.605Z,151335.84
2022-11-24T16:09:38.105Z,151341.00
2022-11-24T16:12:13.024Z,151359.06
2022-11-24T16:14:44.867Z,151366.75
2022-11-24T16:17:17.791Z,151335.84
2022-11-24T16:19:59.838Z,151326.81
2022-11-24T16:22:30.952Z,151330.69
2022-11-24T16:25:03.013Z,151294.66
2022-11-24T16:27:41.263Z,151275.31
2022-11-24T16:30:14.320Z,151256.00
2022-11-24T16:32:46.469Z,151262.41
2022-11-24T16:35:19.741Z,151288.22
2022-11-24T16:37:51.694Z,151270.16
2022-11-24T16:40:23.095Z,151271.44
2022-11-24T16:42:56.566Z,151266.28
2022-11-24T16:45:28.519Z,151285.63
2022-11-24T16:48:00.673Z,151304.94
2022-11-24T16:50:31.748Z,151293.38
2022-11-24T16:53:03.626Z,151316.53
2022-11-24T16:55:34.645Z,151317.84
2022-11-24T16:58:25.330Z,151324.28
2022-11-24T17:01:00.476Z,151326.81
2022-11-24T17:03:34.348Z,151325.53
2022-11-24T17:06:05.659Z,151307.50
2022-11-24T17:08:39.769Z,151319.13
2022-11-24T17:11:21.633Z,151301.06
2022-11-24T17:14:01.449Z,151308.81
2022-11-24T17:16:33.344Z,151315.25
2022-11-24T17:19:06.018Z,151298.50
2022-11-24T17:21:44.599Z,151297.19
2022-11-24T17:24:17.810Z,151289.50
2022-11-24T17:26:52.876Z,151292.03
2022-11-24T17:29:30.220Z,151301.06
2022-11-24T17:32:01.521Z,151331.97
2022-11-24T17:34:31.685Z,151315.25
2022-11-24T17:37:02.248Z,151307.50
2022-11-24T17:39:33.640Z,151315.25
2022-11-24T17:42:03.800Z,151339.72
2022-11-24T17:44:37.915Z,151326.81
2022-11-24T17:47:08.221Z,151346.16
2022-11-24T17:49:38.335Z,151357.78
2022-11-24T17:52:18.884Z,151347.47
2022-11-24T17:54:51.209Z,151353.91
2022-11-24T17:57:21.791Z,151352.63
2022-11-24T17:59:59.352Z,151335.84
2022-11-24T18:02:32.686Z,151326.81
2022-11-24T18:05:20.327Z,151313.97
2022-11-24T18:07:57.630Z,151307.50
2022-11-24T18:10:32.582Z,151323.00
2022-11-24T18:13:05.749Z,151294.66
2022-11-24T18:16:04.411Z,151292.03
2022-11-24T18:18:45.966Z,151272.72
2022-11-24T18:21:27.488Z,151261.16
2022-11-24T18:24:07.258Z,151250.84
2022-11-24T18:26:39.000Z,151263.75
2022-11-24T18:29:15.674Z,151284.34
2022-11-24T18:32:02.717Z,151246.97
2022-11-24T18:34:35.218Z,151244.41
2022-11-24T18:37:11.133Z,151254.72
2022-11-24T18:39:50.457Z,151246.97
2022-11-24T18:42:25.743Z,151235.38
2022-11-24T18:45:01.017Z,151218.63
2022-11-24T18:47:36.589Z,151213.47
2022-11-24T18:50:14.630Z,151228.91
2022-11-24T18:52:56.963Z,151201.91
2022-11-24T18:55:31.398Z,151196.75
2022-11-24T18:58:03.279Z,151195.47
2022-11-24T19:00:42.900Z,151176.16
2022-11-24T19:03:22.862Z,151145.22
2022-11-24T19:05:55.775Z,151147.81
2022-11-24T19:08:31.640Z,151141.41
2022-11-24T19:11:10.827Z,151138.78
2022-11-24T19:13:42.937Z,151137.53
2022-11-24T19:16:18.429Z,151127.22
2022-11-24T19:18:58.096Z,151127.22
2022-11-24T19:21:30.443Z,151120.75
2022-11-24T19:24:05.647Z,151147.81
2022-11-24T19:26:43.074Z,151160.72
2022-11-24T19:29:20.657Z,151142.66
2022-11-24T19:32:02.040Z,151141.41
2022-11-24T19:34:42.316Z,151151.69
2022-11-24T19:37:13.431Z,151190.31
2022-11-24T19:39:46.725Z,151182.56
2022-11-24T19:42:25.783Z,151199.31
2022-11-24T19:45:05.136Z,151209.66
2022-11-24T19:47:37.760Z,151219.94
2022-11-24T19:50:14.791Z,151246.97
2022-11-24T19:52:46.723Z,151239.28
2022-11-24T19:55:21.861Z,151253.41
2022-11-24T19:57:57.788Z,151256.00
2022-11-24T20:00:35.245Z,151262.41
2022-11-24T20:03:26.013Z,151286.88
2022-11-24T20:06:28.279Z,151284.34
2022-11-24T20:09:01.313Z,151270.16
2022-11-24T20:11:37.881Z,151283.03
2022-11-24T20:14:19.067Z,151289.50
2022-11-24T20:16:51.634Z,151267.56
2022-11-24T20:19:32.099Z,151272.72
2022-11-24T20:22:17.317Z,151280.47
2022-11-24T20:24:50.572Z,151280.47
2022-11-24T20:27:23.800Z,151281.75
2022-11-24T20:30:08.062Z,151277.88
2022-11-24T20:32:39.783Z,151284.34
2022-11-24T20:35:18.349Z,151281.75
2022-11-24T20:38:06.494Z,151289.50
2022-11-24T20:40:41.502Z,151304.94
2022-11-24T20:43:15.116Z,151317.84
2022-11-24T20:46:01.833Z,151317.84
2022-11-24T20:48:42.580Z,151302.34
2022-11-24T20:51:21.557Z,151311.38
2022-11-24T20:54:01.967Z,151315.25
2022-11-24T20:56:40.113Z,151317.84
2022-11-24T20:59:23.256Z,151301.06
2022-11-24T21:02:04.269Z,151302.34
2022-11-24T21:04:40.570Z,151304.94
2022-11-24T21:07:17.014Z,151297.19
2022-11-24T21:09:52.967Z,151295.91
2022-11-24T21:12:27.864Z,151288.22
2022-11-24T21:15:08.847Z,151298.50
2022-11-24T21:17:46.868Z,151285.63
2022-11-24T21:20:21.996Z,151276.59
2022-11-24T21:22:52.862Z,151266.28
2022-11-24T21:25:28.845Z,151263.75
2022-11-24T21:28:04.091Z,151261.16
2022-11-24T21:30:40.706Z,151237.94
2022-11-24T21:33:21.317Z,151239.28
2022-11-24T21:35:53.957Z,151235.38
2022-11-24T21:38:25.627Z,151225.09
2022-11-24T21:41:06.838Z,151231.53
2022-11-24T21:43:59.012Z,151204.44
2022-11-24T21:46:42.148Z,151205.78
2022-11-24T21:49:18.801Z,151213.47
2022-11-24T21:51:55.691Z,151225.09
2022-11-24T21:54:27.962Z,151209.66
2022-11-24T21:57:01.548Z,151199.31
2022-11-24T21:59:34.018Z,151203.19
2022-11-24T22:02:13.399Z,151190.31
2022-11-24T22:04:44.263Z,151178.72
2022-11-24T22:07:16.325Z,151185.19
2022-11-24T22:09:49.352Z,151189.00
2022-11-24T22:12:22.929Z,151187.72
2022-11-24T22:14:54.088Z,151185.19
2022-11-24T22:17:29.048Z,151204.44
2022-11-24T22:20:06.672Z,151183.84
2022-11-24T22:22:39.600Z,151189.00
2022-11-24T22:25:15.190Z,151204.44
2022-11-24T22:27:49.499Z,151198.03
2022-11-24T22:30:21.220Z,151190.31
2022-11-24T22:32:52.483Z,151194.16
2022-11-24T22:35:25.194Z,151201.91
2022-11-24T22:37:58.164Z,151205.78
2022-11-24T22:40:31.173Z,151200.63
2022-11-24T22:43:13.332Z,151204.44
2022-11-24T22:45:45.738Z,151189.00
2022-11-24T22:48:18.682Z,151183.84
2022-11-24T22:50:50.273Z,151183.84
2022-11-24T22:53:21.612Z,151204.44
2022-11-24T22:55:58.608Z,151201.91
2022-11-24T22:58:39.732Z,151210.91
2022-11-24T23:01:15.089Z,151245.69
2022-11-24T23:03:46.378Z,151216.06
2022-11-24T23:06:23.293Z,151219.94
2022-11-24T23:08:55.559Z,151207.06
2022-11-24T23:11:37.441Z,151240.53
2022-11-24T23:14:15.242Z,151226.38
2022-11-24T23:16:47.845Z,151223.78
2022-11-24T23:19:20.641Z,151259.88
2022-11-24T23:21:51.624Z,151245.69
2022-11-24T23:24:22.976Z,151235.38
2022-11-24T23:26:54.601Z,151227.66
2022-11-24T23:29:29.089Z,151228.91
2022-11-24T23:32:00.918Z,151216.06
2022-11-24T23:34:32.441Z,151226.38
2022-11-24T23:37:04.230Z,151248.25
2022-11-24T23:39:40.724Z,151237.94
2022-11-24T23:42:13.817Z,151240.53
2022-11-24T23:44:47.467Z,151227.66
2022-11-24T23:47:18.786Z,151239.28
2022-11-24T23:49:50.139Z,151219.94
2022-11-24T23:52:20.646Z,151204.44
2022-11-24T23:54:51.651Z,151208.31
2022-11-24T23:57:22.731Z,151198.03
